KDOV/DOV METAR and TAF weather

Enter ICAO airport designator
Station Type Date Time Source
KDOV METAR 2022/12/08 12:55 UTC NOAA

KDOV 081255Z 32007KT 7SM CLR 08/08 A3024 RMK AO2A SLP244 T00800080


Station Type Date Time Source
KDOV Decoded METAR 2022/12/08 12:55 UTC NOAA

Dover Air Force Base, DE, United States (KDOV) 39-08N 075-28W
Dec 08, 2022 - 07:55 AM EST / 2022.12.08 1255 UTC
Wind: from the NW (320 degrees) at 8 MPH (7 KT):0
Visibility: 7 mile(s):0
Sky conditions: clear
Temperature: 46.4 F (8.0 C)
Dew Point: 46.4 F (8.0 C)
Relative Humidity: 100%
Pressure (altimeter): 30.24 in. Hg (1024 hPa)
ob: KDOV 081255Z 32007KT 7SM CLR 08/08 A3024 RMK AO2A SLP244 T00800080
cycle: 13

Station Type Date Time Source
KDOV TAF 2022/12/08 08:56 UTC NOAA

TAF KDOV 080800Z 0808/0914 32009KT 6000 BR OVC004 QNH3018INS
BECMG 0811/0812 35012KT 9999 NSW OVC010 QNH3023INS
TEMPO 0813/0816 BKN015 OVC020
BECMG 0815/0816 35012KT 9999 BKN025 QNH3022INS
BECMG 0819/0820 35006KT 9999 BKN025 BKN040 QNH3022INS
BECMG 0901/0902 36009KT 9999 BKN020 OVC080 QNH3024INS
BECMG 0911/0912 02012KT 9999 BKN025 QNH3029INS TX11/0819Z TN04/0908Z

Example: see airport list